sensor_id;sensor_type;location;lat;lon;timestamp;P1;durP1;ratioP1;P2;durP2;ratioP2
28547;SDS011;68292;49.600;8.746;2024-03-29T00:01:39;1.90;;;1.13;;
28547;SDS011;68292;49.600;8.746;2024-03-29T00:04:06;2.70;;;1.47;;
28547;SDS011;68292;49.600;8.746;2024-03-29T00:06:33;1.60;;;1.20;;
28547;SDS011;68292;49.600;8.746;2024-03-29T00:08:59;2.17;;;1.40;;
28547;SDS011;68292;49.600;8.746;2024-03-29T00:11:26;1.60;;;1.20;;
28547;SDS011;68292;49.600;8.746;2024-03-29T00:13:53;1.73;;;1.60;;
28547;SDS011;68292;49.600;8.746;2024-03-29T00:16:21;3.17;;;1.23;;
28547;SDS011;68292;49.600;8.746;2024-03-29T00:18:49;2.80;;;1.43;;
28547;SDS011;68292;49.600;8.746;2024-03-29T00:21:16;1.67;;;1.50;;
28547;SDS011;68292;49.600;8.746;2024-03-29T00:23:43;3.80;;;1.40;;
28547;SDS011;68292;49.600;8.746;2024-03-29T00:26:10;2.07;;;1.50;;
28547;SDS011;68292;49.600;8.746;2024-03-29T00:28:38;1.63;;;1.30;;
28547;SDS011;68292;49.600;8.746;2024-03-29T00:31:05;1.50;;;1.20;;
28547;SDS011;68292;49.600;8.746;2024-03-29T00:33:34;2.57;;;1.40;;
28547;SDS011;68292;49.600;8.746;2024-03-29T00:36:01;1.63;;;1.53;;
28547;SDS011;68292;49.600;8.746;2024-03-29T00:38:28;1.47;;;1.37;;
28547;SDS011;68292;49.600;8.746;2024-03-29T00:40:55;1.40;;;1.10;;
28547;SDS011;68292;49.600;8.746;2024-03-29T00:43:22;1.90;;;1.20;;
28547;SDS011;68292;49.600;8.746;2024-03-29T00:45:48;1.37;;;1.10;;
28547;SDS011;68292;49.600;8.746;2024-03-29T00:48:15;1.40;;;1.30;;
28547;SDS011;68292;49.600;8.746;2024-03-29T00:50:44;2.13;;;1.20;;
28547;SDS011;68292;49.600;8.746;2024-03-29T00:53:11;3.00;;;1.30;;
28547;SDS011;68292;49.600;8.746;2024-03-29T00:55:37;2.10;;;1.10;;
28547;SDS011;68292;49.600;8.746;2024-03-29T00:58:04;2.57;;;1.80;;
28547;SDS011;68292;49.600;8.746;2024-03-29T01:00:31;2.03;;;1.30;;
28547;SDS011;68292;49.600;8.746;2024-03-29T01:02:57;1.37;;;1.20;;
28547;SDS011;68292;49.600;8.746;2024-03-29T01:05:24;2.70;;;1.33;;
28547;SDS011;68292;49.600;8.746;2024-03-29T01:07:52;2.17;;;1.13;;
28547;SDS011;68292;49.600;8.746;2024-03-29T01:10:19;1.23;;;1.13;;
28547;SDS011;68292;49.600;8.746;2024-03-29T01:12:46;1.30;;;1.20;;
28547;SDS011;68292;49.600;8.746;2024-03-29T01:15:12;1.80;;;1.10;;
28547;SDS011;68292;49.600;8.746;2024-03-29T01:17:39;1.73;;;1.03;;
28547;SDS011;68292;49.600;8.746;2024-03-29T01:20:06;1.60;;;1.10;;
28547;SDS011;68292;49.600;8.746;2024-03-29T01:22:33;1.20;;;1.10;;
28547;SDS011;68292;49.600;8.746;2024-03-29T01:25:01;1.37;;;1.27;;
28547;SDS011;68292;49.600;8.746;2024-03-29T01:27:28;2.13;;;1.07;;
28547;SDS011;68292;49.600;8.746;2024-03-29T01:29:55;1.67;;;1.30;;
28547;SDS011;68292;49.600;8.746;2024-03-29T01:32:22;1.43;;;1.20;;
28547;SDS011;68292;49.600;8.746;2024-03-29T01:34:48;1.30;;;1.10;;
28547;SDS011;68292;49.600;8.746;2024-03-29T01:37:15;2.43;;;1.33;;
28547;SDS011;68292;49.600;8.746;2024-03-29T01:39:42;1.80;;;1.20;;
28547;SDS011;68292;49.600;8.746;2024-03-29T01:42:10;1.80;;;1.30;;
28547;SDS011;68292;49.600;8.746;2024-03-29T01:44:37;3.77;;;1.37;;
28547;SDS011;68292;49.600;8.746;2024-03-29T01:47:04;1.47;;;1.30;;
28547;SDS011;68292;49.600;8.746;2024-03-29T01:49:32;1.30;;;1.20;;
28547;SDS011;68292;49.600;8.746;2024-03-29T01:52:01;1.13;;;1.10;;
28547;SDS011;68292;49.600;8.746;2024-03-29T01:54:30;1.40;;;1.30;;
28547;SDS011;68292;49.600;8.746;2024-03-29T01:56:58;2.00;;;1.30;;
28547;SDS011;68292;49.600;8.746;2024-03-29T01:59:27;2.57;;;1.30;;
28547;SDS011;68292;49.600;8.746;2024-03-29T02:01:56;1.30;;;1.20;;
28547;SDS011;68292;49.600;8.746;2024-03-29T02:04:24;2.13;;;1.60;;
28547;SDS011;68292;49.600;8.746;2024-03-29T02:06:52;1.63;;;1.20;;
28547;SDS011;68292;49.600;8.746;2024-03-29T02:09:20;1.93;;;1.30;;
28547;SDS011;68292;49.600;8.746;2024-03-29T02:11:47;2.73;;;1.30;;
28547;SDS011;68292;49.600;8.746;2024-03-29T02:14:16;1.30;;;1.20;;
28547;SDS011;68292;49.600;8.746;2024-03-29T02:16:44;1.43;;;1.33;;
28547;SDS011;68292;49.600;8.746;2024-03-29T02:19:12;1.33;;;1.17;;
28547;SDS011;68292;49.600;8.746;2024-03-29T02:21:41;1.33;;;1.03;;
28547;SDS011;68292;49.600;8.746;2024-03-29T02:24:13;1.40;;;1.30;;
28547;SDS011;68292;49.600;8.746;2024-03-29T02:26:42;1.30;;;1.10;;
28547;SDS011;68292;49.600;8.746;2024-03-29T02:29:10;1.17;;;1.03;;
28547;SDS011;68292;49.600;8.746;2024-03-29T02:31:39;1.17;;;1.07;;
28547;SDS011;68292;49.600;8.746;2024-03-29T02:34:06;1.40;;;1.20;;
28547;SDS011;68292;49.600;8.746;2024-03-29T02:36:34;1.73;;;1.03;;
28547;SDS011;68292;49.600;8.746;2024-03-29T02:39:02;3.10;;;1.10;;
28547;SDS011;68292;49.600;8.746;2024-03-29T02:41:31;1.40;;;1.17;;
28547;SDS011;68292;49.600;8.746;2024-03-29T02:43:58;1.57;;;1.00;;
28547;SDS011;68292;49.600;8.746;2024-03-29T02:46:26;2.27;;;1.47;;
28547;SDS011;68292;49.600;8.746;2024-03-29T02:48:53;1.70;;;0.97;;
28547;SDS011;68292;49.600;8.746;2024-03-29T02:51:20;1.50;;;1.27;;
28547;SDS011;68292;49.600;8.746;2024-03-29T02:53:47;1.30;;;1.20;;
28547;SDS011;68292;49.600;8.746;2024-03-29T02:56:15;1.17;;;1.07;;
28547;SDS011;68292;49.600;8.746;2024-03-29T02:58:48;1.57;;;1.17;;
28547;SDS011;68292;49.600;8.746;2024-03-29T03:01:15;1.13;;;0.97;;
28547;SDS011;68292;49.600;8.746;2024-03-29T03:03:42;1.10;;;1.00;;
28547;SDS011;68292;49.600;8.746;2024-03-29T03:06:10;1.23;;;1.00;;
28547;SDS011;68292;49.600;8.746;2024-03-29T03:08:37;1.17;;;1.07;;
28547;SDS011;68292;49.600;8.746;2024-03-29T03:11:22;1.30;;;1.10;;
28547;SDS011;68292;49.600;8.746;2024-03-29T03:13:51;1.57;;;0.87;;
28547;SDS011;68292;49.600;8.746;2024-03-29T03:16:18;1.13;;;0.90;;
28547;SDS011;68292;49.600;8.746;2024-03-29T03:18:47;1.03;;;0.97;;
28547;SDS011;68292;49.600;8.746;2024-03-29T03:21:13;0.60;;;0.60;;
28547;SDS011;68292;49.600;8.746;2024-03-29T03:23:41;0.93;;;0.93;;
28547;SDS011;68292;49.600;8.746;2024-03-29T03:26:07;0.90;;;0.90;;
28547;SDS011;68292;49.600;8.746;2024-03-29T03:28:35;0.90;;;0.90;;
28547;SDS011;68292;49.600;8.746;2024-03-29T03:31:03;1.20;;;1.10;;
28547;SDS011;68292;49.600;8.746;2024-03-29T03:33:32;0.90;;;0.90;;
28547;SDS011;68292;49.600;8.746;2024-03-29T03:35:59;1.20;;;1.00;;
28547;SDS011;68292;49.600;8.746;2024-03-29T03:38:27;1.30;;;1.10;;
28547;SDS011;68292;49.600;8.746;2024-03-29T03:40:54;1.00;;;0.90;;
28547;SDS011;68292;49.600;8.746;2024-03-29T03:43:21;0.90;;;0.90;;
28547;SDS011;68292;49.600;8.746;2024-03-29T03:45:48;1.40;;;1.03;;
28547;SDS011;68292;49.600;8.746;2024-03-29T03:48:17;1.20;;;1.10;;
28547;SDS011;68292;49.600;8.746;2024-03-29T03:50:44;0.97;;;0.90;;
28547;SDS011;68292;49.600;8.746;2024-03-29T03:53:12;1.20;;;1.10;;
28547;SDS011;68292;49.600;8.746;2024-03-29T03:55:38;1.27;;;1.07;;
28547;SDS011;68292;49.600;8.746;2024-03-29T03:58:06;1.10;;;1.00;;
28547;SDS011;68292;49.600;8.746;2024-03-29T04:00:33;1.27;;;1.13;;
28547;SDS011;68292;49.600;8.746;2024-03-29T04:03:01;3.07;;;0.80;;
28547;SDS011;68292;49.600;8.746;2024-03-29T04:05:30;0.90;;;0.90;;
28547;SDS011;68292;49.600;8.746;2024-03-29T04:07:58;0.80;;;0.80;;
28547;SDS011;68292;49.600;8.746;2024-03-29T04:10:25;1.13;;;0.97;;
28547;SDS011;68292;49.600;8.746;2024-03-29T04:12:53;2.17;;;0.90;;
28547;SDS011;68292;49.600;8.746;2024-03-29T04:15:19;1.30;;;1.00;;
28547;SDS011;68292;49.600;8.746;2024-03-29T04:17:47;0.90;;;0.90;;
28547;SDS011;68292;49.600;8.746;2024-03-29T04:20:14;1.73;;;1.07;;
28547;SDS011;68292;49.600;8.746;2024-03-29T04:22:43;1.30;;;1.20;;
28547;SDS011;68292;49.600;8.746;2024-03-29T04:25:11;1.10;;;1.00;;
28547;SDS011;68292;49.600;8.746;2024-03-29T04:27:38;1.07;;;0.97;;
28547;SDS011;68292;49.600;8.746;2024-03-29T04:30:06;1.57;;;1.10;;
28547;SDS011;68292;49.600;8.746;2024-03-29T04:32:34;1.10;;;0.80;;
28547;SDS011;68292;49.600;8.746;2024-03-29T04:35:01;0.97;;;0.97;;
28547;SDS011;68292;49.600;8.746;2024-03-29T04:37:28;0.97;;;0.97;;
28547;SDS011;68292;49.600;8.746;2024-03-29T04:39:58;1.60;;;1.07;;
28547;SDS011;68292;49.600;8.746;2024-03-29T04:42:25;1.00;;;0.90;;
28547;SDS011;68292;49.600;8.746;2024-03-29T04:44:53;1.17;;;1.07;;
28547;SDS011;68292;49.600;8.746;2024-03-29T04:47:21;5.33;;;1.13;;
28547;SDS011;68292;49.600;8.746;2024-03-29T04:49:48;1.20;;;0.97;;
28547;SDS011;68292;49.600;8.746;2024-03-29T04:52:16;1.40;;;1.20;;
28547;SDS011;68292;49.600;8.746;2024-03-29T04:54:43;1.40;;;0.90;;
28547;SDS011;68292;49.600;8.746;2024-03-29T04:57:12;1.27;;;1.17;;
28547;SDS011;68292;49.600;8.746;2024-03-29T04:59:40;0.90;;;0.90;;
28547;SDS011;68292;49.600;8.746;2024-03-29T05:02:08;1.60;;;0.97;;
28547;SDS011;68292;49.600;8.746;2024-03-29T05:04:35;0.83;;;0.83;;
28547;SDS011;68292;49.600;8.746;2024-03-29T05:07:04;0.80;;;0.80;;
28547;SDS011;68292;49.600;8.746;2024-03-29T05:09:31;1.73;;;1.20;;
28547;SDS011;68292;49.600;8.746;2024-03-29T05:11:59;1.37;;;1.10;;
28547;SDS011;68292;49.600;8.746;2024-03-29T05:14:28;1.20;;;1.00;;
28547;SDS011;68292;49.600;8.746;2024-03-29T05:16:55;0.80;;;0.80;;
28547;SDS011;68292;49.600;8.746;2024-03-29T05:19:23;1.20;;;1.10;;
28547;SDS011;68292;49.600;8.746;2024-03-29T05:21:51;0.90;;;0.90;;
28547;SDS011;68292;49.600;8.746;2024-03-29T05:24:19;1.33;;;1.00;;
28547;SDS011;68292;49.600;8.746;2024-03-29T05:26:47;1.00;;;1.00;;
28547;SDS011;68292;49.600;8.746;2024-03-29T05:29:14;1.20;;;1.00;;
28547;SDS011;68292;49.600;8.746;2024-03-29T05:31:44;1.10;;;1.00;;
28547;SDS011;68292;49.600;8.746;2024-03-29T05:34:11;0.70;;;0.70;;
28547;SDS011;68292;49.600;8.746;2024-03-29T05:36:40;1.20;;;1.10;;
28547;SDS011;68292;49.600;8.746;2024-03-29T05:39:09;1.07;;;0.97;;
28547;SDS011;68292;49.600;8.746;2024-03-29T05:41:37;1.80;;;0.90;;
28547;SDS011;68292;49.600;8.746;2024-03-29T05:44:05;1.20;;;0.90;;
28547;SDS011;68292;49.600;8.746;2024-03-29T05:46:32;1.10;;;1.00;;
28547;SDS011;68292;49.600;8.746;2024-03-29T05:49:01;0.90;;;0.90;;
28547;SDS011;68292;49.600;8.746;2024-03-29T05:51:29;1.00;;;0.87;;
28547;SDS011;68292;49.600;8.746;2024-03-29T05:53:57;0.80;;;0.80;;
28547;SDS011;68292;49.600;8.746;2024-03-29T05:56:25;1.27;;;1.17;;
28547;SDS011;68292;49.600;8.746;2024-03-29T05:58:52;1.10;;;0.90;;
28547;SDS011;68292;49.600;8.746;2024-03-29T06:01:20;1.00;;;1.00;;
28547;SDS011;68292;49.600;8.746;2024-03-29T06:03:48;1.17;;;1.00;;
28547;SDS011;68292;49.600;8.746;2024-03-29T06:06:19;1.40;;;1.07;;
28547;SDS011;68292;49.600;8.746;2024-03-29T06:08:49;1.20;;;1.10;;
28547;SDS011;68292;49.600;8.746;2024-03-29T06:11:17;1.23;;;1.13;;
28547;SDS011;68292;49.600;8.746;2024-03-29T06:13:45;0.97;;;0.90;;
28547;SDS011;68292;49.600;8.746;2024-03-29T06:16:30;1.80;;;1.17;;
28547;SDS011;68292;49.600;8.746;2024-03-29T06:19:16;1.73;;;0.80;;
28547;SDS011;68292;49.600;8.746;2024-03-29T06:21:45;1.10;;;1.00;;
28547;SDS011;68292;49.600;8.746;2024-03-29T06:24:13;1.10;;;1.00;;
28547;SDS011;68292;49.600;8.746;2024-03-29T06:26:42;1.10;;;1.00;;
28547;SDS011;68292;49.600;8.746;2024-03-29T06:29:09;1.40;;;1.10;;
28547;SDS011;68292;49.600;8.746;2024-03-29T06:31:37;0.83;;;0.83;;
28547;SDS011;68292;49.600;8.746;2024-03-29T06:34:05;0.80;;;0.80;;
28547;SDS011;68292;49.600;8.746;2024-03-29T06:36:33;0.90;;;0.90;;
28547;SDS011;68292;49.600;8.746;2024-03-29T06:39:02;0.90;;;0.90;;
28547;SDS011;68292;49.600;8.746;2024-03-29T06:41:30;2.53;;;1.00;;
28547;SDS011;68292;49.600;8.746;2024-03-29T06:43:58;1.53;;;0.90;;
28547;SDS011;68292;49.600;8.746;2024-03-29T06:46:26;1.17;;;0.90;;
28547;SDS011;68292;49.600;8.746;2024-03-29T06:48:54;0.90;;;0.90;;
28547;SDS011;68292;49.600;8.746;2024-03-29T06:51:22;1.10;;;1.00;;
28547;SDS011;68292;49.600;8.746;2024-03-29T06:53:49;1.00;;;0.90;;
28547;SDS011;68292;49.600;8.746;2024-03-29T06:56:19;0.90;;;0.80;;
28547;SDS011;68292;49.600;8.746;2024-03-29T06:58:47;0.93;;;0.93;;
28547;SDS011;68292;49.600;8.746;2024-03-29T07:01:14;1.13;;;1.03;;
28547;SDS011;68292;49.600;8.746;2024-03-29T07:03:42;1.03;;;0.90;;
28547;SDS011;68292;49.600;8.746;2024-03-29T07:06:10;0.80;;;0.80;;
28547;SDS011;68292;49.600;8.746;2024-03-29T07:08:37;1.00;;;0.90;;
28547;SDS011;68292;49.600;8.746;2024-03-29T07:11:05;0.90;;;0.90;;
28547;SDS011;68292;49.600;8.746;2024-03-29T07:13:34;1.33;;;1.23;;
28547;SDS011;68292;49.600;8.746;2024-03-29T07:16:03;1.30;;;1.20;;
28547;SDS011;68292;49.600;8.746;2024-03-29T07:18:32;1.07;;;1.03;;
28547;SDS011;68292;49.600;8.746;2024-03-29T07:21:00;1.50;;;1.40;;
28547;SDS011;68292;49.600;8.746;2024-03-29T07:23:28;1.60;;;1.43;;
28547;SDS011;68292;49.600;8.746;2024-03-29T07:25:59;1.57;;;1.30;;
28547;SDS011;68292;49.600;8.746;2024-03-29T07:28:28;1.20;;;1.10;;
28547;SDS011;68292;49.600;8.746;2024-03-29T07:30:58;3.50;;;1.30;;
28547;SDS011;68292;49.600;8.746;2024-03-29T07:33:33;1.17;;;1.07;;
28547;SDS011;68292;49.600;8.746;2024-03-29T07:36:01;2.70;;;1.20;;
28547;SDS011;68292;49.600;8.746;2024-03-29T07:38:29;1.20;;;1.10;;
28547;SDS011;68292;49.600;8.746;2024-03-29T07:40:58;1.87;;;1.20;;
28547;SDS011;68292;49.600;8.746;2024-03-29T07:43:25;1.50;;;1.20;;
28547;SDS011;68292;49.600;8.746;2024-03-29T07:46:02;1.50;;;1.40;;
28547;SDS011;68292;49.600;8.746;2024-03-29T07:48:30;2.40;;;2.20;;
28547;SDS011;68292;49.600;8.746;2024-03-29T07:50:58;2.53;;;2.33;;
28547;SDS011;68292;49.600;8.746;2024-03-29T07:53:26;1.90;;;1.70;;
28547;SDS011;68292;49.600;8.746;2024-03-29T07:55:53;2.30;;;2.10;;
28547;SDS011;68292;49.600;8.746;2024-03-29T07:58:21;1.80;;;1.70;;
28547;SDS011;68292;49.600;8.746;2024-03-29T08:00:49;2.43;;;1.73;;
28547;SDS011;68292;49.600;8.746;2024-03-29T08:03:20;1.80;;;1.70;;
28547;SDS011;68292;49.600;8.746;2024-03-29T08:05:57;2.07;;;1.87;;
28547;SDS011;68292;49.600;8.746;2024-03-29T08:08:25;2.97;;;1.90;;
28547;SDS011;68292;49.600;8.746;2024-03-29T08:10:54;3.40;;;3.10;;
28547;SDS011;68292;49.600;8.746;2024-03-29T08:13:21;4.70;;;2.67;;
28547;SDS011;68292;49.600;8.746;2024-03-29T08:15:55;3.00;;;2.80;;
28547;SDS011;68292;49.600;8.746;2024-03-29T08:18:26;2.40;;;2.20;;
28547;SDS011;68292;49.600;8.746;2024-03-29T08:20:54;3.30;;;1.97;;
28547;SDS011;68292;49.600;8.746;2024-03-29T08:23:23;1.83;;;1.40;;
28547;SDS011;68292;49.600;8.746;2024-03-29T08:25:51;1.50;;;1.40;;
28547;SDS011;68292;49.600;8.746;2024-03-29T08:28:21;1.20;;;1.20;;
28547;SDS011;68292;49.600;8.746;2024-03-29T08:30:57;1.13;;;1.10;;
28547;SDS011;68292;49.600;8.746;2024-03-29T08:33:27;1.57;;;1.30;;
28547;SDS011;68292;49.600;8.746;2024-03-29T08:35:56;1.47;;;1.37;;
28547;SDS011;68292;49.600;8.746;2024-03-29T08:38:24;2.00;;;1.80;;
28547;SDS011;68292;49.600;8.746;2024-03-29T08:40:52;2.00;;;1.80;;
28547;SDS011;68292;49.600;8.746;2024-03-29T08:43:19;2.77;;;2.10;;
28547;SDS011;68292;49.600;8.746;2024-03-29T08:45:47;2.80;;;2.47;;
28547;SDS011;68292;49.600;8.746;2024-03-29T08:48:15;2.40;;;2.20;;
28547;SDS011;68292;49.600;8.746;2024-03-29T08:50:44;3.00;;;2.13;;
28547;SDS011;68292;49.600;8.746;2024-03-29T08:53:13;4.30;;;2.80;;
28547;SDS011;68292;49.600;8.746;2024-03-29T08:55:40;2.40;;;2.20;;
28547;SDS011;68292;49.600;8.746;2024-03-29T08:58:08;2.27;;;2.10;;
28547;SDS011;68292;49.600;8.746;2024-03-29T09:00:36;2.00;;;1.80;;
28547;SDS011;68292;49.600;8.746;2024-03-29T09:03:03;2.13;;;1.90;;
28547;SDS011;68292;49.600;8.746;2024-03-29T09:05:31;1.67;;;1.57;;
28547;SDS011;68292;49.600;8.746;2024-03-29T09:08:00;1.80;;;1.70;;
28547;SDS011;68292;49.600;8.746;2024-03-29T09:10:28;2.27;;;2.00;;
28547;SDS011;68292;49.600;8.746;2024-03-29T09:12:59;1.80;;;1.70;;
28547;SDS011;68292;49.600;8.746;2024-03-29T09:15:26;2.50;;;2.30;;
28547;SDS011;68292;49.600;8.746;2024-03-29T09:17:54;2.70;;;2.50;;
28547;SDS011;68292;49.600;8.746;2024-03-29T09:20:22;2.13;;;1.93;;
28547;SDS011;68292;49.600;8.746;2024-03-29T09:22:50;1.67;;;1.57;;
28547;SDS011;68292;49.600;8.746;2024-03-29T09:25:20;1.33;;;1.20;;
28547;SDS011;68292;49.600;8.746;2024-03-29T09:27:47;1.23;;;1.00;;
28547;SDS011;68292;49.600;8.746;2024-03-29T09:30:15;1.00;;;1.00;;
28547;SDS011;68292;49.600;8.746;2024-03-29T09:32:44;2.37;;;1.37;;
28547;SDS011;68292;49.600;8.746;2024-03-29T09:35:13;1.53;;;1.43;;
28547;SDS011;68292;49.600;8.746;2024-03-29T09:37:41;2.20;;;2.00;;
28547;SDS011;68292;49.600;8.746;2024-03-29T09:40:10;2.07;;;1.87;;
28547;SDS011;68292;49.600;8.746;2024-03-29T09:42:40;2.30;;;2.10;;
28547;SDS011;68292;49.600;8.746;2024-03-29T09:45:10;3.47;;;3.17;;
28547;SDS011;68292;49.600;8.746;2024-03-29T09:47:38;3.53;;;3.23;;
28547;SDS011;68292;49.600;8.746;2024-03-29T09:50:08;3.50;;;3.20;;
28547;SDS011;68292;49.600;8.746;2024-03-29T09:52:38;2.50;;;2.33;;
28547;SDS011;68292;49.600;8.746;2024-03-29T09:55:08;2.50;;;2.30;;
28547;SDS011;68292;49.600;8.746;2024-03-29T09:57:36;1.83;;;1.70;;
28547;SDS011;68292;49.600;8.746;2024-03-29T10:00:06;1.90;;;1.70;;
28547;SDS011;68292;49.600;8.746;2024-03-29T10:02:35;1.43;;;1.33;;
28547;SDS011;68292;49.600;8.746;2024-03-29T10:05:03;1.70;;;1.60;;
28547;SDS011;68292;49.600;8.746;2024-03-29T10:07:35;1.70;;;1.60;;
28547;SDS011;68292;49.600;8.746;2024-03-29T10:10:04;1.40;;;1.30;;
28547;SDS011;68292;49.600;8.746;2024-03-29T10:12:32;1.50;;;1.40;;
28547;SDS011;68292;49.600;8.746;2024-03-29T10:14:59;1.90;;;1.80;;
28547;SDS011;68292;49.600;8.746;2024-03-29T10:17:35;2.07;;;1.50;;
28547;SDS011;68292;49.600;8.746;2024-03-29T10:20:04;1.90;;;1.80;;
28547;SDS011;68292;49.600;8.746;2024-03-29T10:22:35;3.53;;;3.23;;
28547;SDS011;68292;49.600;8.746;2024-03-29T10:25:07;3.90;;;3.50;;
28547;SDS011;68292;49.600;8.746;2024-03-29T10:27:35;4.13;;;3.73;;
28547;SDS011;68292;49.600;8.746;2024-03-29T10:30:03;2.73;;;2.53;;
28547;SDS011;68292;49.600;8.746;2024-03-29T10:32:33;1.70;;;1.60;;
28547;SDS011;68292;49.600;8.746;2024-03-29T10:35:02;3.13;;;2.23;;
28547;SDS011;68292;49.600;8.746;2024-03-29T10:37:30;1.90;;;1.60;;
28547;SDS011;68292;49.600;8.746;2024-03-29T10:40:05;2.53;;;1.30;;
28547;SDS011;68292;49.600;8.746;2024-03-29T10:42:36;1.40;;;1.30;;
28547;SDS011;68292;49.600;8.746;2024-03-29T10:45:05;1.40;;;1.07;;
28547;SDS011;68292;49.600;8.746;2024-03-29T10:47:34;4.27;;;1.13;;
28547;SDS011;68292;49.600;8.746;2024-03-29T10:50:04;1.10;;;1.00;;
28547;SDS011;68292;49.600;8.746;2024-03-29T10:52:34;1.10;;;1.10;;
28547;SDS011;68292;49.600;8.746;2024-03-29T10:55:02;1.30;;;1.20;;
28547;SDS011;68292;49.600;8.746;2024-03-29T10:57:31;1.77;;;1.60;;
28547;SDS011;68292;49.600;8.746;2024-03-29T11:00:03;1.40;;;1.30;;
28547;SDS011;68292;49.600;8.746;2024-03-29T11:02:39;1.40;;;1.30;;
28547;SDS011;68292;49.600;8.746;2024-03-29T11:05:18;1.70;;;1.60;;
28547;SDS011;68292;49.600;8.746;2024-03-29T11:07:46;1.30;;;1.20;;
28547;SDS011;68292;49.600;8.746;2024-03-29T11:10:15;1.97;;;1.20;;
28547;SDS011;68292;49.600;8.746;2024-03-29T11:12:50;1.27;;;1.17;;
28547;SDS011;68292;49.600;8.746;2024-03-29T11:15:30;1.37;;;1.27;;
28547;SDS011;68292;49.600;8.746;2024-03-29T11:17:58;1.57;;;1.47;;
28547;SDS011;68292;49.600;8.746;2024-03-29T11:20:28;2.00;;;1.80;;
28547;SDS011;68292;49.600;8.746;2024-03-29T11:23:04;1.53;;;1.43;;
28547;SDS011;68292;49.600;8.746;2024-03-29T11:25:39;1.77;;;1.33;;
28547;SDS011;68292;49.600;8.746;2024-03-29T11:28:08;1.60;;;1.50;;
28547;SDS011;68292;49.600;8.746;2024-03-29T11:30:39;2.27;;;2.00;;
28547;SDS011;68292;49.600;8.746;2024-03-29T11:35:54;1.97;;;1.87;;
28547;SDS011;68292;49.600;8.746;2024-03-29T11:38:28;1.60;;;1.50;;
28547;SDS011;68292;49.600;8.746;2024-03-29T11:41:05;3.33;;;2.10;;
28547;SDS011;68292;49.600;8.746;2024-03-29T11:43:34;2.30;;;2.10;;
28547;SDS011;68292;49.600;8.746;2024-03-29T11:46:04;2.10;;;1.90;;
28547;SDS011;68292;49.600;8.746;2024-03-29T11:48:33;2.22;;;1.90;;
28547;SDS011;68292;49.600;8.746;2024-03-29T11:51:04;2.10;;;1.80;;
28547;SDS011;68292;49.600;8.746;2024-03-29T11:53:34;1.80;;;1.70;;
28547;SDS011;68292;49.600;8.746;2024-03-29T11:56:02;5.20;;;2.63;;
28547;SDS011;68292;49.600;8.746;2024-03-29T11:58:32;3.10;;;2.90;;
28547;SDS011;68292;49.600;8.746;2024-03-29T12:01:01;3.10;;;2.90;;
28547;SDS011;68292;49.600;8.746;2024-03-29T12:03:29;2.90;;;2.70;;
28547;SDS011;68292;49.600;8.746;2024-03-29T12:05:58;2.83;;;2.63;;
28547;SDS011;68292;49.600;8.746;2024-03-29T12:08:29;2.90;;;2.70;;
28547;SDS011;68292;49.600;8.746;2024-03-29T12:10:58;3.03;;;2.83;;
28547;SDS011;68292;49.600;8.746;2024-03-29T12:13:26;2.90;;;2.60;;
28547;SDS011;68292;49.600;8.746;2024-03-29T12:15:54;2.60;;;2.40;;
28547;SDS011;68292;49.600;8.746;2024-03-29T12:18:23;2.30;;;2.10;;
28547;SDS011;68292;49.600;8.746;2024-03-29T12:20:55;2.40;;;2.20;;
28547;SDS011;68292;49.600;8.746;2024-03-29T12:23:23;2.03;;;1.90;;
28547;SDS011;68292;49.600;8.746;2024-03-29T12:25:53;1.90;;;1.80;;
28547;SDS011;68292;49.600;8.746;2024-03-29T12:28:23;2.53;;;2.33;;
28547;SDS011;68292;49.600;8.746;2024-03-29T12:30:51;3.23;;;2.80;;
28547;SDS011;68292;49.600;8.746;2024-03-29T12:33:21;3.50;;;3.00;;
28547;SDS011;68292;49.600;8.746;2024-03-29T12:35:50;3.50;;;3.20;;
28547;SDS011;68292;49.600;8.746;2024-03-29T12:38:20;2.97;;;2.77;;
28547;SDS011;68292;49.600;8.746;2024-03-29T12:40:49;3.10;;;2.60;;
28547;SDS011;68292;49.600;8.746;2024-03-29T12:43:20;2.83;;;2.53;;
28547;SDS011;68292;49.600;8.746;2024-03-29T12:45:50;2.30;;;2.03;;
28547;SDS011;68292;49.600;8.746;2024-03-29T12:48:19;1.87;;;1.73;;
28547;SDS011;68292;49.600;8.746;2024-03-29T12:50:49;1.90;;;1.60;;
28547;SDS011;68292;49.600;8.746;2024-03-29T12:53:17;1.90;;;1.70;;
28547;SDS011;68292;49.600;8.746;2024-03-29T12:55:46;1.97;;;1.80;;
28547;SDS011;68292;49.600;8.746;2024-03-29T12:58:14;2.03;;;1.87;;
28547;SDS011;68292;49.600;8.746;2024-03-29T13:00:48;2.07;;;1.57;;
28547;SDS011;68292;49.600;8.746;2024-03-29T13:03:16;1.70;;;1.60;;
28547;SDS011;68292;49.600;8.746;2024-03-29T13:05:44;4.43;;;4.03;;
28547;SDS011;68292;49.600;8.746;2024-03-29T13:08:12;3.90;;;3.50;;
28547;SDS011;68292;49.600;8.746;2024-03-29T13:10:42;2.65;;;2.30;;
28547;SDS011;68292;49.600;8.746;2024-03-29T13:13:10;1.83;;;1.73;;
28547;SDS011;68292;49.600;8.746;2024-03-29T13:15:38;1.70;;;1.60;;
28547;SDS011;68292;49.600;8.746;2024-03-29T13:18:09;1.60;;;1.50;;
28547;SDS011;68292;49.600;8.746;2024-03-29T13:20:39;2.30;;;1.40;;
28547;SDS011;68292;49.600;8.746;2024-03-29T13:23:08;1.70;;;1.60;;
28547;SDS011;68292;49.600;8.746;2024-03-29T13:25:37;3.03;;;2.70;;
28547;SDS011;68292;49.600;8.746;2024-03-29T13:28:05;3.60;;;3.00;;
28547;SDS011;68292;49.600;8.746;2024-03-29T13:30:33;2.60;;;2.33;;
28547;SDS011;68292;49.600;8.746;2024-03-29T13:33:02;2.30;;;2.10;;
28547;SDS011;68292;49.600;8.746;2024-03-29T13:35:32;2.40;;;2.23;;
28547;SDS011;68292;49.600;8.746;2024-03-29T13:38:00;3.00;;;2.40;;
28547;SDS011;68292;49.600;8.746;2024-03-29T13:40:28;3.57;;;2.80;;
28547;SDS011;68292;49.600;8.746;2024-03-29T13:42:57;4.82;;;3.30;;
28547;SDS011;68292;49.600;8.746;2024-03-29T13:45:25;3.50;;;3.10;;
28547;SDS011;68292;49.600;8.746;2024-03-29T13:47:53;3.00;;;2.50;;
28547;SDS011;68292;49.600;8.746;2024-03-29T13:50:22;2.37;;;2.17;;
28547;SDS011;68292;49.600;8.746;2024-03-29T13:52:51;2.92;;;1.95;;
28547;SDS011;68292;49.600;8.746;2024-03-29T13:55:20;8.70;;;7.00;;
28547;SDS011;68292;49.600;8.746;2024-03-29T13:57:51;5.43;;;4.60;;
28547;SDS011;68292;49.600;8.746;2024-03-29T14:00:20;3.93;;;3.27;;
28547;SDS011;68292;49.600;8.746;2024-03-29T14:02:48;3.78;;;2.50;;
28547;SDS011;68292;49.600;8.746;2024-03-29T14:05:16;2.00;;;1.90;;
28547;SDS011;68292;49.600;8.746;2024-03-29T14:07:43;2.60;;;2.40;;
28547;SDS011;68292;49.600;8.746;2024-03-29T14:10:13;2.30;;;2.13;;
28547;SDS011;68292;49.600;8.746;2024-03-29T14:12:40;3.63;;;3.33;;
28547;SDS011;68292;49.600;8.746;2024-03-29T14:15:08;5.23;;;3.97;;
28547;SDS011;68292;49.600;8.746;2024-03-29T14:17:36;3.17;;;2.97;;
28547;SDS011;68292;49.600;8.746;2024-03-29T14:20:05;2.50;;;2.30;;
28547;SDS011;68292;49.600;8.746;2024-03-29T14:22:33;3.50;;;2.43;;
28547;SDS011;68292;49.600;8.746;2024-03-29T14:25:03;2.30;;;2.10;;
28547;SDS011;68292;49.600;8.746;2024-03-29T14:27:37;2.80;;;2.60;;
28547;SDS011;68292;49.600;8.746;2024-03-29T14:30:20;2.30;;;2.10;;
28547;SDS011;68292;49.600;8.746;2024-03-29T14:32:50;3.60;;;2.37;;
28547;SDS011;68292;49.600;8.746;2024-03-29T14:35:18;1.77;;;1.63;;
28547;SDS011;68292;49.600;8.746;2024-03-29T14:37:46;1.80;;;1.70;;
28547;SDS011;68292;49.600;8.746;2024-03-29T14:40:14;2.27;;;1.97;;
28547;SDS011;68292;49.600;8.746;2024-03-29T14:42:43;3.20;;;1.70;;
28547;SDS011;68292;49.600;8.746;2024-03-29T14:45:11;1.70;;;1.60;;
28547;SDS011;68292;49.600;8.746;2024-03-29T14:47:39;1.30;;;1.20;;
28547;SDS011;68292;49.600;8.746;2024-03-29T14:50:07;1.47;;;1.37;;
28547;SDS011;68292;49.600;8.746;2024-03-29T14:52:35;1.53;;;1.30;;
28547;SDS011;68292;49.600;8.746;2024-03-29T14:55:04;1.00;;;1.00;;
28547;SDS011;68292;49.600;8.746;2024-03-29T14:57:32;1.30;;;1.20;;
28547;SDS011;68292;49.600;8.746;2024-03-29T15:00:01;1.30;;;1.20;;